createdAt,value
2019-04-04T00:00:08.886Z,88.90
2019-04-04T00:01:08.865Z,89.31
2019-04-04T00:02:08.854Z,89.31
2019-04-04T00:03:08.878Z,89.36
2019-04-04T00:04:08.847Z,89.46
2019-04-04T00:05:08.855Z,89.56
2019-04-04T00:06:08.836Z,89.77
2019-04-04T00:07:08.820Z,89.67
2019-04-04T00:08:08.801Z,89.77
2019-04-04T00:09:08.783Z,89.87
2019-04-04T00:10:08.791Z,89.87
2019-04-04T00:11:08.770Z,89.77
2019-04-04T00:12:08.794Z,89.98
2019-04-04T00:13:09.235Z,90.08
2019-04-04T00:14:12.598Z,90.08
2019-04-04T00:15:08.717Z,90.23
2019-04-04T00:16:08.728Z,90.44
2019-04-04T00:17:08.728Z,90.29
2019-04-04T00:18:08.688Z,90.33
2019-04-04T00:19:08.678Z,90.44
2019-04-04T00:20:08.667Z,90.44
2019-04-04T00:21:08.666Z,90.54
2019-04-04T00:22:08.704Z,90.85
2019-04-04T00:23:08.707Z,91.16
2019-04-04T00:24:09.054Z,91.16
2019-04-04T00:25:10.470Z,91.06
2019-04-04T00:26:10.540Z,90.85
2019-04-04T00:27:08.593Z,90.85
2019-04-04T00:28:08.612Z,90.95
2019-04-04T00:29:08.615Z,91.06
2019-04-04T00:30:08.602Z,90.95
2019-04-04T00:31:08.603Z,91.41
2019-04-04T00:32:08.532Z,91.52
2019-04-04T00:33:08.539Z,91.83
2019-04-04T00:34:08.529Z,91.93
2019-04-04T00:35:08.499Z,92.03
2019-04-04T00:36:08.539Z,91.93
2019-04-04T00:37:08.477Z,91.93
2019-04-04T00:38:08.521Z,92.03
2019-04-04T00:39:09.422Z,92.14
2019-04-04T00:40:10.838Z,92.14
2019-04-04T00:41:08.435Z,92.45
2019-04-04T00:42:08.428Z,92.35
2019-04-04T00:43:08.424Z,92.35
2019-04-04T00:44:08.406Z,92.24
2019-04-04T00:45:08.460Z,92.14
2019-04-04T00:46:08.383Z,92.24
2019-04-04T00:47:08.374Z,92.24
2019-04-04T00:48:08.366Z,92.49
2019-04-04T00:49:08.373Z,92.55
2019-04-04T00:50:08.363Z,92.86
2019-04-04T00:51:08.621Z,92.86
2019-04-04T00:52:10.327Z,92.97
2019-04-04T00:53:09.931Z,92.86
2019-04-04T00:54:08.300Z,92.55
2019-04-04T00:55:08.290Z,92.55
2019-04-04T00:56:08.288Z,92.38
2019-04-04T00:57:08.268Z,92.69
2019-04-04T00:58:08.268Z,92.97
2019-04-04T00:59:08.252Z,92.69
2019-04-04T01:00:08.248Z,92.76
2019-04-04T01:01:08.226Z,92.90
2019-04-04T01:02:08.236Z,92.90
2019-04-04T01:03:08.206Z,93.12
2019-04-04T01:04:08.196Z,93.12
2019-04-04T01:05:08.184Z,93.22
2019-04-04T01:06:08.178Z,93.53
2019-04-04T01:07:08.176Z,93.74
2019-04-04T01:08:08.162Z,93.43
2019-04-04T01:09:11.319Z,93.43
2019-04-04T01:10:08.131Z,93.63
2019-04-04T01:11:08.151Z,93.53
2019-04-04T01:12:08.112Z,93.43
2019-04-04T01:13:08.102Z,93.22
2019-04-04T01:14:08.089Z,93.43
2019-04-04T01:15:08.080Z,93.53
2019-04-04T01:16:08.070Z,93.74
2019-04-04T01:17:08.073Z,93.63
2019-04-04T01:18:08.052Z,93.74
2019-04-04T01:19:09.589Z,93.84
2019-04-04T01:20:08.027Z,94.05
2019-04-04T01:21:08.016Z,94.26
2019-04-04T01:22:08.016Z,94.36
2019-04-04T01:23:07.998Z,94.15
2019-04-04T01:24:07.986Z,94.15
2019-04-04T01:25:07.983Z,94.36
2019-04-04T01:26:07.974Z,94.26
2019-04-04T01:27:07.964Z,94.26
2019-04-04T01:28:08.715Z,94.26
2019-04-04T01:29:10.165Z,94.36
2019-04-04T01:30:07.913Z,94.36
2019-04-04T01:31:07.911Z,94.36
2019-04-04T01:32:07.902Z,94.36
2019-04-04T01:33:07.881Z,94.46
2019-04-04T01:34:07.880Z,94.67
2019-04-04T01:35:07.860Z,94.67
2019-04-04T01:36:07.861Z,94.78
2019-04-04T01:37:07.869Z,94.88
2019-04-04T01:38:07.848Z,94.57
2019-04-04T01:39:07.826Z,94.71
2019-04-04T01:40:07.810Z,94.78
2019-04-04T01:41:07.808Z,94.82
2019-04-04T01:42:07.979Z,94.88
2019-04-04T01:43:09.329Z,94.82
2019-04-04T01:44:11.039Z,94.82
2019-04-04T01:45:07.764Z,94.82
2019-04-04T01:46:07.754Z,94.92
2019-04-04T01:47:07.767Z,95.03
2019-04-04T01:48:07.764Z,95.13
2019-04-04T01:49:07.727Z,95.23
2019-04-04T01:50:07.703Z,95.23
2019-04-04T01:51:08.047Z,95.13
2019-04-04T01:52:07.693Z,95.23
2019-04-04T01:53:07.701Z,95.23
2019-04-04T01:54:07.670Z,95.34
2019-04-04T01:55:07.670Z,95.34
2019-04-04T01:56:07.640Z,95.34
2019-04-04T01:57:08.133Z,95.34
2019-04-04T01:58:08.012Z,95.23
2019-04-04T01:59:07.617Z,95.34
2019-04-04T02:00:07.598Z,95.40
2019-04-04T02:01:07.587Z,95.40
2019-04-04T02:02:07.577Z,95.29
2019-04-04T02:03:07.577Z,95.40
2019-04-04T02:04:07.556Z,95.29
2019-04-04T02:05:07.548Z,95.19
2019-04-04T02:06:07.543Z,95.29
2019-04-04T02:07:07.529Z,95.19
2019-04-04T02:08:07.514Z,94.98
2019-04-04T02:09:07.503Z,94.73
2019-04-04T02:10:07.506Z,94.57
2019-04-04T02:11:07.505Z,94.36
2019-04-04T02:12:08.005Z,94.36
2019-04-04T02:13:09.553Z,94.32
2019-04-04T02:14:07.465Z,94.21
2019-04-04T02:15:07.450Z,94.21
2019-04-04T02:16:07.430Z,94.01
2019-04-04T02:17:07.428Z,93.90
2019-04-04T02:18:07.429Z,93.80
2019-04-04T02:19:07.409Z,93.70
2019-04-04T02:20:07.390Z,93.59
2019-04-04T02:21:07.379Z,93.70
2019-04-04T02:22:07.369Z,93.59
2019-04-04T02:23:07.359Z,93.49
2019-04-04T02:24:07.356Z,93.49
2019-04-04T02:25:07.337Z,93.38
2019-04-04T02:26:07.328Z,93.49
2019-04-04T02:27:07.627Z,93.59
2019-04-04T02:28:08.939Z,93.80
2019-04-04T02:29:08.992Z,93.70
2019-04-04T02:30:07.282Z,93.44
2019-04-04T02:31:07.284Z,93.33
2019-04-04T02:32:07.254Z,93.13
2019-04-04T02:33:07.304Z,93.13
2019-04-04T02:34:07.264Z,93.02
2019-04-04T02:35:10.187Z,93.02
2019-04-04T02:36:07.220Z,93.13
2019-04-04T02:37:07.220Z,93.13
2019-04-04T02:38:07.234Z,93.02
2019-04-04T02:39:07.199Z,93.13
2019-04-04T02:40:08.696Z,93.13
2019-04-04T02:41:07.160Z,93.33
2019-04-04T02:42:07.159Z,93.33
2019-04-04T02:43:07.147Z,93.13
2019-04-04T02:44:07.126Z,92.93
2019-04-04T02:45:07.146Z,92.72
2019-04-04T02:46:10.984Z,92.72
2019-04-04T02:47:07.105Z,92.72
2019-04-04T02:48:07.096Z,92.82
2019-04-04T02:49:07.117Z,92.72
2019-04-04T02:50:07.084Z,92.61
2019-04-04T02:51:08.029Z,92.61
2019-04-04T02:52:07.067Z,92.51
2019-04-04T02:53:07.035Z,92.30
2019-04-04T02:54:07.041Z,92.20
2019-04-04T02:55:07.021Z,91.89
2019-04-04T02:56:07.001Z,91.68
2019-04-04T02:57:09.304Z,91.58
2019-04-04T02:58:06.986Z,91.58
2019-04-04T02:59:06.970Z,91.58
2019-04-04T03:00:07.025Z,91.58
2019-04-04T03:01:06.958Z,91.58
2019-04-04T03:02:06.958Z,91.68
2019-04-04T03:03:09.194Z,91.68
2019-04-04T03:04:06.916Z,91.78
2019-04-04T03:05:06.959Z,91.89
2019-04-04T03:06:06.906Z,91.68
2019-04-04T03:07:06.888Z,91.37
2019-04-04T03:08:06.898Z,91.27
2019-04-04T03:09:10.129Z,91.12
2019-04-04T03:10:06.860Z,91.12
2019-04-04T03:11:06.853Z,91.22
2019-04-04T03:12:06.832Z,91.22
2019-04-04T03:13:06.824Z,91.12
2019-04-04T03:14:06.814Z,90.91
2019-04-04T03:15:09.051Z,91.02
2019-04-04T03:16:06.805Z,91.16
2019-04-04T03:17:06.791Z,91.06
2019-04-04T03:18:06.809Z,90.91
2019-04-04T03:19:09.971Z,90.91
2019-04-04T03:20:06.753Z,91.02
2019-04-04T03:21:06.729Z,91.06
2019-04-04T03:22:06.749Z,91.06
2019-04-04T03:23:06.720Z,91.16
2019-04-04T03:24:07.338Z,90.85
2019-04-04T03:25:06.698Z,90.64
2019-04-04T03:26:06.698Z,90.75
2019-04-04T03:27:06.677Z,90.85
2019-04-04T03:28:06.671Z,90.85
2019-04-04T03:29:10.253Z,90.75
2019-04-04T03:30:13.297Z,90.95
2019-04-04T03:31:07.637Z,91.06
2019-04-04T03:32:13.399Z,91.16
2019-04-04T03:33:07.631Z,90.95
2019-04-04T03:34:11.404Z,90.75
2019-04-04T03:35:07.648Z,90.85
2019-04-04T03:36:06.596Z,90.85
2019-04-04T03:37:08.963Z,90.64
2019-04-04T03:38:07.553Z,90.85
2019-04-04T03:39:06.550Z,90.85
2019-04-04T03:40:06.554Z,91.06
2019-04-04T03:41:06.528Z,90.85
2019-04-04T03:42:08.134Z,90.64
2019-04-04T03:43:06.501Z,90.64
2019-04-04T03:44:06.516Z,90.64
2019-04-04T03:45:06.477Z,90.75
2019-04-04T03:46:06.477Z,90.85
2019-04-04T03:47:09.907Z,90.95
2019-04-04T03:48:06.446Z,91.10
2019-04-04T03:49:06.447Z,91.00
2019-04-04T03:50:06.433Z,91.00
2019-04-04T03:51:06.425Z,91.10
2019-04-04T03:52:10.207Z,91.31
2019-04-04T03:53:06.423Z,91.20
2019-04-04T03:54:06.384Z,91.31
2019-04-04T03:55:06.373Z,91.31
2019-04-04T03:56:06.408Z,91.62
2019-04-04T03:57:08.575Z,91.62
2019-04-04T03:58:07.350Z,91.52
2019-04-04T03:59:06.331Z,91.52
2019-04-04T04:00:07.471Z,91.66
2019-04-04T04:01:06.313Z,91.76
2019-04-04T04:02:06.308Z,91.76
2019-04-04T04:03:06.290Z,91.76
2019-04-04T04:04:06.282Z,91.76
2019-04-04T04:05:06.259Z,91.86
2019-04-04T04:06:08.870Z,91.86
2019-04-04T04:07:06.248Z,92.07
2019-04-04T04:08:06.236Z,92.07
2019-04-04T04:09:06.242Z,91.97
2019-04-04T04:10:06.241Z,91.86
2019-04-04T04:11:06.254Z,91.86
2019-04-04T04:12:10.074Z,91.97
2019-04-04T04:13:06.219Z,91.97
2019-04-04T04:14:06.175Z,92.18
2019-04-04T04:15:06.156Z,92.38
2019-04-04T04:16:06.216Z,92.59
2019-04-04T04:17:06.156Z,92.69
2019-04-04T04:18:06.145Z,92.69
2019-04-04T04:19:06.134Z,92.59
2019-04-04T04:20:06.106Z,92.38
2019-04-04T04:21:09.760Z,92.24
2019-04-04T04:22:06.089Z,92.14
2019-04-04T04:23:06.080Z,91.93
2019-04-04T04:24:06.069Z,91.72
2019-04-04T04:25:06.071Z,91.72
2019-04-04T04:26:09.510Z,91.62
2019-04-04T04:27:06.058Z,91.20
2019-04-04T04:28:06.050Z,91.10
2019-04-04T04:29:06.036Z,91.10
2019-04-04T04:30:07.412Z,91.00
2019-04-04T04:31:05.996Z,91.00
2019-04-04T04:32:06.006Z,91.20
2019-04-04T04:33:05.976Z,91.20
2019-04-04T04:34:05.993Z,91.16
2019-04-04T04:35:08.752Z,91.20
2019-04-04T04:36:09.423Z,91.31
2019-04-04T04:37:05.937Z,91.27
2019-04-04T04:38:05.921Z,91.41
2019-04-04T04:39:05.921Z,91.41
2019-04-04T04:40:05.902Z,91.27
2019-04-04T04:41:05.880Z,90.95
2019-04-04T04:42:05.870Z,90.89
2019-04-04T04:43:05.891Z,91.06
2019-04-04T04:44:06.612Z,90.64
2019-04-04T04:45:05.841Z,90.54
2019-04-04T04:46:05.830Z,90.33
2019-04-04T04:47:05.838Z,90.33
2019-04-04T04:48:05.819Z,90.33
2019-04-04T04:49:05.826Z,90.23
2019-04-04T04:50:08.702Z,90.23
2019-04-04T04:51:05.777Z,90.12
2019-04-04T04:52:05.795Z,90.12
2019-04-04T04:53:05.755Z,90.02
2019-04-04T04:54:05.817Z,89.81
2019-04-04T04:55:05.790Z,89.67
2019-04-04T04:56:05.737Z,89.67
2019-04-04T04:57:05.739Z,89.46
2019-04-04T04:58:09.852Z,89.25
2019-04-04T04:59:05.700Z,88.73
2019-04-04T05:00:05.682Z,88.53
2019-04-04T05:01:05.670Z,88.53
2019-04-04T05:02:05.670Z,88.53
2019-04-04T05:03:05.673Z,88.63
2019-04-04T05:04:05.655Z,88.21
2019-04-04T05:05:05.630Z,88.21
2019-04-04T05:06:05.618Z,88.32
2019-04-04T05:07:07.371Z,88.32
2019-04-04T05:08:05.599Z,88.53
2019-04-04T05:09:05.588Z,88.84
2019-04-04T05:10:05.566Z,88.73
2019-04-04T05:11:05.557Z,88.63
2019-04-04T05:12:05.565Z,88.73
2019-04-04T05:13:05.549Z,88.63
2019-04-04T05:14:05.538Z,88.53
2019-04-04T05:15:05.513Z,88.32
2019-04-04T05:16:08.762Z,88.42
2019-04-04T05:17:05.493Z,88.42
2019-04-04T05:18:05.484Z,88.42
2019-04-04T05:19:05.483Z,88.73
2019-04-04T05:20:05.462Z,88.63
2019-04-04T05:21:05.458Z,88.73
2019-04-04T05:22:08.803Z,89.04
2019-04-04T05:23:05.462Z,88.84
2019-04-04T05:24:05.450Z,88.94
2019-04-04T05:25:08.563Z,88.94
2019-04-04T05:26:05.411Z,89.04
2019-04-04T05:27:06.089Z,89.04
2019-04-04T05:28:06.365Z,88.84
2019-04-04T05:29:05.391Z,88.32
2019-04-04T05:30:08.189Z,88.21
2019-04-04T05:31:05.370Z,88.01
2019-04-04T05:32:05.345Z,88.01
2019-04-04T05:33:05.326Z,88.21
2019-04-04T05:34:05.339Z,88.53
2019-04-04T05:35:05.323Z,88.42
2019-04-04T05:36:05.976Z,88.32
2019-04-04T05:37:07.289Z,88.32
2019-04-04T05:38:07.607Z,88.32
2019-04-04T05:39:05.314Z,88.32
2019-04-04T05:40:05.266Z,88.63
2019-04-04T05:41:05.251Z,88.63
2019-04-04T05:42:05.242Z,88.32
2019-04-04T05:43:05.223Z,87.76
2019-04-04T05:44:05.258Z,87.55
2019-04-04T05:45:05.201Z,87.35
2019-04-04T05:46:05.186Z,86.93
2019-04-04T05:47:05.181Z,86.93
2019-04-04T05:48:05.167Z,87.14
2019-04-04T05:49:07.685Z,86.68
2019-04-04T05:50:05.177Z,86.37
2019-04-04T05:51:05.159Z,86.17
2019-04-04T05:52:05.145Z,86.17
2019-04-04T05:53:05.115Z,86.27
2019-04-04T05:54:06.995Z,86.07
2019-04-04T05:55:05.107Z,86.07
2019-04-04T05:56:06.524Z,86.13
2019-04-04T05:57:05.074Z,86.02
2019-04-04T05:58:05.054Z,86.07
2019-04-04T05:59:05.052Z,86.37
2019-04-04T06:00:05.042Z,86.07
2019-04-04T06:01:05.046Z,86.27
2019-04-04T06:02:05.022Z,86.68
2019-04-04T06:03:05.011Z,86.99
2019-04-04T06:04:04.991Z,87.30
2019-04-04T06:05:04.987Z,87.62
2019-04-04T06:06:04.980Z,87.62
2019-04-04T06:07:05.078Z,87.10
2019-04-04T06:08:07.830Z,86.79
2019-04-04T06:09:04.938Z,86.79
2019-04-04T06:10:04.928Z,86.85
2019-04-04T06:11:04.917Z,86.68
2019-04-04T06:12:04.927Z,86.75
2019-04-04T06:13:04.896Z,86.96
2019-04-04T06:14:04.885Z,87.16
2019-04-04T06:15:04.884Z,86.75
2019-04-04T06:16:05.022Z,86.75
2019-04-04T06:17:05.135Z,86.75
2019-04-04T06:18:04.863Z,86.65
2019-04-04T06:19:04.835Z,86.75
2019-04-04T06:20:04.831Z,86.75
2019-04-04T06:21:04.825Z,86.44
2019-04-04T06:22:04.832Z,86.54
2019-04-04T06:23:04.802Z,86.60
2019-04-04T06:24:04.809Z,87.02
2019-04-04T06:25:04.809Z,86.50
2019-04-04T06:26:07.444Z,86.40
2019-04-04T06:27:04.771Z,85.88
2019-04-04T06:28:04.739Z,84.95
2019-04-04T06:29:05.771Z,84.84
2019-04-04T06:30:04.720Z,84.95
2019-04-04T06:31:04.743Z,84.95
2019-04-04T06:32:04.706Z,84.53
2019-04-04T06:33:05.067Z,84.50
2019-04-04T06:34:05.965Z,84.50
2019-04-04T06:35:04.680Z,84.08
2019-04-04T06:36:04.676Z,83.46
2019-04-04T06:37:04.659Z,83.67
2019-04-04T06:38:04.624Z,83.98
2019-04-04T06:39:04.633Z,84.08
2019-04-04T06:40:04.623Z,84.39
2019-04-04T06:41:04.613Z,84.39
2019-04-04T06:42:04.598Z,84.39
2019-04-04T06:43:10.296Z,84.39
2019-04-04T06:44:05.580Z,84.60
2019-04-04T06:45:04.561Z,84.70
2019-04-04T06:46:04.567Z,84.29
2019-04-04T06:47:04.540Z,84.50
2019-04-04T06:48:04.522Z,83.98
2019-04-04T06:49:05.098Z,84.05
2019-04-04T06:50:07.144Z,83.53
2019-04-04T06:51:04.488Z,82.90
2019-04-04T06:52:04.500Z,82.90
2019-04-04T06:53:04.468Z,82.56
2019-04-04T06:54:04.457Z,82.15
2019-04-04T06:55:04.447Z,81.90
2019-04-04T06:56:04.452Z,81.38
2019-04-04T06:57:04.871Z,81.18
2019-04-04T06:58:08.204Z,80.97
2019-04-04T06:59:04.409Z,81.18
2019-04-04T07:00:04.398Z,81.59
2019-04-04T07:01:04.383Z,81.56
2019-04-04T07:02:05.292Z,80.93
2019-04-04T07:03:04.385Z,80.32
2019-04-04T07:04:04.376Z,79.86
2019-04-04T07:05:06.195Z,78.63
2019-04-04T07:06:04.351Z,78.08
2019-04-04T07:07:04.338Z,78.04
2019-04-04T07:08:04.334Z,77.01
2019-04-04T07:09:04.311Z,77.01
2019-04-04T07:10:04.300Z,76.87
2019-04-04T07:11:07.005Z,76.87
2019-04-04T07:12:06.760Z,76.87
2019-04-04T07:13:20.206Z,77.52
2019-04-04T07:14:05.251Z,78.14
2019-04-04T07:15:04.238Z,78.08
2019-04-04T07:16:07.697Z,78.52
2019-04-04T07:17:04.417Z,79.04
2019-04-04T07:18:04.214Z,79.45
2019-04-04T07:19:04.206Z,79.76
2019-04-04T07:20:04.206Z,80.18
2019-04-04T07:21:04.175Z,80.21
2019-04-04T07:22:04.174Z,80.83
2019-04-04T07:23:04.163Z,81.70
2019-04-04T07:24:04.143Z,81.80
2019-04-04T07:25:06.698Z,81.80
2019-04-04T07:26:04.125Z,81.38
2019-04-04T07:27:04.120Z,81.28
2019-04-04T07:28:04.111Z,81.80
2019-04-04T07:29:04.082Z,81.96
2019-04-04T07:30:04.081Z,81.70
2019-04-04T07:31:04.100Z,81.45
2019-04-04T07:32:04.051Z,80.83
2019-04-04T07:33:04.049Z,80.52
2019-04-04T07:34:04.030Z,80.83
2019-04-04T07:35:04.028Z,79.97
2019-04-04T07:36:04.048Z,79.76
2019-04-04T07:37:04.001Z,80.28
2019-04-04T07:38:04.007Z,80.11
2019-04-04T07:39:03.977Z,79.49
2019-04-04T07:40:04.536Z,79.66
2019-04-04T07:41:03.958Z,78.94
2019-04-04T07:42:03.968Z,78.63
2019-04-04T07:43:03.970Z,78.73
2019-04-04T07:44:03.933Z,78.63
2019-04-04T07:45:03.923Z,77.87
2019-04-04T07:46:15.610Z,77.04
2019-04-04T07:47:04.897Z,77.04
2019-04-04T07:48:03.909Z,77.04
2019-04-04T07:49:03.882Z,77.45
2019-04-04T07:50:03.856Z,77.66
2019-04-04T07:51:03.861Z,78.08
2019-04-04T07:52:03.861Z,78.52
2019-04-04T07:53:04.959Z,78.21
2019-04-04T07:54:05.179Z,78.01
2019-04-04T07:55:03.839Z,78.31
2019-04-04T07:56:03.799Z,78.52
2019-04-04T07:57:03.789Z,77.76
2019-04-04T07:58:03.842Z,77.66
2019-04-04T07:59:03.799Z,77.28
2019-04-04T08:00:03.758Z,77.49
2019-04-04T08:01:03.766Z,76.18
2019-04-04T08:02:03.736Z,75.67
2019-04-04T08:03:04.741Z,75.81
2019-04-04T08:04:06.523Z,73.98
2019-04-04T08:05:03.716Z,71.00
2019-04-04T08:06:03.715Z,68.95
2019-04-04T08:07:03.698Z,70.18
2019-04-04T08:08:03.752Z,70.08
2019-04-04T08:09:03.664Z,70.62
2019-04-04T08:10:03.653Z,71.17
2019-04-04T08:11:03.677Z,72.06
2019-04-04T08:12:03.642Z,73.54
2019-04-04T08:13:03.720Z,74.71
2019-04-04T08:14:03.612Z,75.15
2019-04-04T08:15:03.656Z,76.15
2019-04-04T08:16:04.185Z,76.01
2019-04-04T08:17:03.579Z,75.18
2019-04-04T08:18:03.610Z,74.74
2019-04-04T08:19:03.549Z,74.22
2019-04-04T08:20:03.551Z,74.33
2019-04-04T08:21:05.700Z,74.02
2019-04-04T08:22:03.572Z,73.71
2019-04-04T08:23:03.546Z,73.61
2019-04-04T08:24:03.547Z,72.85
2019-04-04T08:25:03.501Z,71.66
2019-04-04T08:26:03.480Z,70.94
2019-04-04T08:27:04.177Z,71.14
2019-04-04T08:28:03.475Z,71.11
2019-04-04T08:29:03.460Z,71.83
2019-04-04T08:30:03.445Z,71.41
2019-04-04T08:31:03.433Z,71.83
2019-04-04T08:32:03.445Z,70.90
2019-04-04T08:33:03.404Z,71.41
2019-04-04T08:34:03.424Z,71.51
2019-04-04T08:35:03.384Z,71.66
2019-04-04T08:36:06.118Z,72.30
2019-04-04T08:37:03.374Z,73.13
2019-04-04T08:38:03.347Z,73.33
2019-04-04T08:39:03.367Z,72.96
2019-04-04T08:40:03.330Z,75.42
2019-04-04T08:41:03.933Z,75.46
2019-04-04T08:42:03.300Z,75.77
2019-04-04T08:43:03.317Z,75.97
2019-04-04T08:44:03.280Z,75.25
2019-04-04T08:45:03.280Z,75.97
2019-04-04T08:46:03.259Z,75.56
2019-04-04T08:47:03.258Z,75.35
2019-04-04T08:48:03.257Z,75.05
2019-04-04T08:49:03.235Z,75.35
2019-04-04T08:50:03.217Z,74.84
2019-04-04T08:51:03.351Z,74.22
2019-04-04T08:52:15.875Z,75.35
2019-04-04T08:53:04.213Z,75.46
2019-04-04T08:54:03.176Z,76.39
2019-04-04T08:55:03.175Z,75.67
2019-04-04T08:56:03.164Z,76.07
2019-04-04T08:57:03.153Z,74.53
2019-04-04T08:58:03.143Z,74.43
2019-04-04T08:59:03.122Z,74.53
2019-04-04T09:00:03.134Z,74.95
2019-04-04T09:01:03.172Z,75.56
2019-04-04T09:02:03.098Z,75.87
2019-04-04T09:03:03.100Z,75.01
2019-04-04T09:04:03.105Z,74.60
2019-04-04T09:05:11.782Z,74.80
2019-04-04T09:06:04.071Z,75.12
2019-04-04T09:07:03.083Z,75.22
2019-04-04T09:08:03.029Z,75.08
2019-04-04T09:09:03.032Z,74.98
2019-04-04T09:10:03.049Z,74.57
2019-04-04T09:11:03.018Z,74.53
2019-04-04T09:12:03.079Z,73.61
2019-04-04T09:13:03.090Z,73.50
2019-04-04T09:14:02.956Z,73.81
2019-04-04T09:15:03.469Z,73.40
2019-04-04T09:16:02.937Z,73.81
2019-04-04T09:17:02.959Z,73.57
2019-04-04T09:18:02.924Z,73.47
2019-04-04T09:19:03.351Z,72.44
2019-04-04T09:20:02.904Z,73.27
2019-04-04T09:21:02.905Z,72.06
2019-04-04T09:22:02.895Z,71.96
2019-04-04T09:23:02.873Z,73.50
2019-04-04T09:24:02.866Z,72.89
2019-04-04T09:25:02.852Z,73.09
2019-04-04T09:26:05.928Z,72.78
2019-04-04T09:27:02.830Z,72.78
2019-04-04T09:28:02.821Z,73.19
2019-04-04T09:29:02.803Z,73.19
2019-04-04T09:30:02.798Z,73.50
2019-04-04T09:31:02.805Z,73.71
2019-04-04T09:32:02.910Z,73.61
2019-04-04T09:33:02.769Z,73.40
2019-04-04T09:34:02.764Z,72.99
2019-04-04T09:35:02.747Z,73.81
2019-04-04T09:36:02.737Z,73.68
2019-04-04T09:37:02.718Z,72.65
2019-04-04T09:38:02.735Z,72.03
2019-04-04T09:39:02.696Z,72.72
2019-04-04T09:40:02.699Z,71.08
2019-04-04T09:41:02.719Z,70.63
2019-04-04T09:42:02.698Z,70.90
2019-04-04T09:43:02.680Z,68.96
2019-04-04T09:44:05.730Z,69.16
2019-04-04T09:45:02.652Z,69.47
2019-04-04T09:46:02.624Z,68.34
2019-04-04T09:47:05.649Z,67.86
2019-04-04T09:48:02.603Z,69.19
2019-04-04T09:49:02.601Z,69.50
2019-04-04T09:50:02.591Z,69.64
2019-04-04T09:51:02.561Z,70.04
2019-04-04T09:52:02.571Z,71.41
2019-04-04T09:53:02.569Z,71.11
2019-04-04T09:54:02.560Z,70.49
2019-04-04T09:55:02.540Z,71.00
2019-04-04T09:56:02.815Z,72.13
2019-04-04T09:57:02.509Z,72.10
2019-04-04T09:58:02.518Z,70.73
2019-04-04T09:59:02.507Z,69.16
2019-04-04T10:00:02.494Z,68.72
2019-04-04T10:01:02.456Z,69.02
2019-04-04T10:02:02.454Z,68.68
2019-04-04T10:03:02.449Z,68.38
2019-04-04T10:04:02.454Z,67.66
2019-04-04T10:05:02.463Z,67.76
2019-04-04T10:06:02.546Z,67.97
2019-04-04T10:07:02.399Z,67.43
2019-04-04T10:08:02.500Z,67.11
2019-04-04T10:09:14.675Z,67.32
2019-04-04T10:10:03.368Z,68.04
2019-04-04T10:11:02.364Z,67.49
2019-04-04T10:12:02.343Z,67.60
2019-04-04T10:13:02.331Z,67.49
2019-04-04T10:14:04.064Z,66.30
2019-04-04T10:15:02.319Z,66.19
2019-04-04T10:16:02.322Z,69.40
2019-04-04T10:17:02.300Z,67.14
2019-04-04T10:18:02.287Z,67.73
2019-04-04T10:19:02.270Z,68.86
2019-04-04T10:20:03.111Z,68.14
2019-04-04T10:21:11.725Z,67.19
2019-04-04T10:22:03.228Z,65.41
2019-04-04T10:23:02.231Z,66.16
2019-04-04T10:24:02.222Z,67.38
2019-04-04T10:25:02.218Z,68.95
2019-04-04T10:26:02.198Z,68.95
2019-04-04T10:27:02.178Z,69.32
2019-04-04T10:28:02.167Z,69.91
2019-04-04T10:29:02.166Z,69.06
2019-04-04T10:30:02.177Z,68.10
2019-04-04T10:31:02.156Z,68.51
2019-04-04T10:32:02.195Z,69.64
2019-04-04T10:33:02.115Z,66.53
2019-04-04T10:34:02.156Z,65.54
2019-04-04T10:35:02.113Z,66.93
2019-04-04T10:36:02.083Z,68.51
2019-04-04T10:37:02.072Z,68.43
2019-04-04T10:38:02.072Z,69.15
2019-04-04T10:39:02.062Z,69.43
2019-04-04T10:40:02.044Z,68.51
2019-04-04T10:41:02.022Z,68.19
2019-04-04T10:42:02.020Z,67.76
2019-04-04T10:43:02.122Z,67.52
2019-04-04T10:44:02.026Z,66.63
2019-04-04T10:45:01.989Z,65.70
2019-04-04T10:46:01.995Z,66.80
2019-04-04T10:47:01.971Z,65.54
2019-04-04T10:48:01.980Z,66.12
2019-04-04T10:49:01.959Z,65.27
2019-04-04T10:50:01.928Z,64.97
2019-04-04T10:51:01.917Z,66.06
2019-04-04T10:52:01.910Z,65.75
2019-04-04T10:53:02.597Z,64.70
2019-04-04T10:54:01.917Z,64.39
2019-04-04T10:55:01.905Z,62.55
2019-04-04T10:56:02.600Z,63.02
2019-04-04T10:57:01.866Z,64.17
2019-04-04T10:58:01.844Z,65.00
2019-04-04T10:59:01.834Z,66.81
2019-04-04T11:00:03.348Z,64.83
2019-04-04T11:01:01.814Z,64.53
2019-04-04T11:02:01.817Z,64.39
2019-04-04T11:03:01.808Z,66.16
2019-04-04T11:04:01.844Z,65.11
2019-04-04T11:05:01.772Z,64.50
2019-04-04T11:06:01.759Z,65.01
2019-04-04T11:07:01.740Z,63.03
2019-04-04T11:08:01.783Z,64.16
2019-04-04T11:09:01.756Z,64.06
2019-04-04T11:10:01.713Z,64.16
2019-04-04T11:11:01.721Z,62.42
2019-04-04T11:12:01.699Z,61.52
2019-04-04T11:13:02.941Z,63.43
2019-04-04T11:14:01.705Z,63.56
2019-04-04T11:15:01.668Z,64.61
2019-04-04T11:16:01.649Z,63.90
2019-04-04T11:17:01.661Z,64.51
2019-04-04T11:18:01.628Z,63.87
2019-04-04T11:19:01.652Z,64.56
2019-04-04T11:20:01.606Z,63.32
2019-04-04T11:21:01.585Z,63.94
2019-04-04T11:22:01.605Z,63.32
2019-04-04T11:23:01.564Z,63.84
2019-04-04T11:24:01.575Z,64.01
2019-04-04T11:25:01.544Z,64.32
2019-04-04T11:26:01.546Z,63.91
2019-04-04T11:27:01.534Z,62.68
2019-04-04T11:28:01.562Z,62.99
2019-04-04T11:29:01.523Z,65.62
2019-04-04T11:30:02.261Z,63.98
2019-04-04T11:31:01.483Z,64.29
2019-04-04T11:32:01.472Z,62.83
2019-04-04T11:33:01.471Z,63.65
2019-04-04T11:34:01.530Z,62.21
2019-04-04T11:35:01.455Z,62.80
2019-04-04T11:36:01.451Z,63.31
2019-04-04T11:37:01.428Z,61.77
2019-04-04T11:38:01.428Z,61.26
2019-04-04T11:39:01.406Z,61.16
2019-04-04T11:40:01.387Z,62.18
2019-04-04T11:41:01.387Z,63.95
2019-04-04T11:42:01.367Z,62.83
2019-04-04T11:43:01.355Z,62.11
2019-04-04T11:44:01.345Z,61.93
2019-04-04T11:45:01.326Z,63.91
2019-04-04T11:46:01.345Z,65.92
2019-04-04T11:47:01.312Z,66.33
2019-04-04T11:48:01.305Z,67.05
2019-04-04T11:49:01.319Z,66.60
2019-04-04T11:50:02.127Z,66.78
2019-04-04T11:51:01.286Z,66.24
2019-04-04T11:52:01.264Z,63.26
2019-04-04T11:53:01.252Z,62.01
2019-04-04T11:54:01.316Z,62.29
2019-04-04T11:55:01.231Z,62.18
2019-04-04T11:56:01.221Z,61.34
2019-04-04T11:57:01.230Z,62.87
2019-04-04T11:58:01.200Z,61.54
2019-04-04T11:59:01.288Z,61.50
2019-04-04T12:00:01.185Z,62.24
2019-04-04T12:01:01.182Z,63.73
2019-04-04T12:02:01.180Z,65.17
2019-04-04T12:03:01.154Z,65.45
2019-04-04T12:04:01.129Z,66.13
2019-04-04T12:05:01.147Z,65.28
2019-04-04T12:06:01.116Z,62.70
2019-04-04T12:07:01.107Z,62.87
2019-04-04T12:08:01.097Z,60.62
2019-04-04T12:09:01.087Z,60.69
2019-04-04T12:10:07.160Z,57.84
2019-04-04T12:11:02.066Z,59.47
2019-04-04T12:12:01.047Z,58.52
2019-04-04T12:13:01.034Z,59.44
2019-04-04T12:14:01.026Z,58.83
2019-04-04T12:15:01.025Z,58.42
2019-04-04T12:16:00.995Z,58.42
2019-04-04T12:17:01.132Z,58.86
2019-04-04T12:18:00.975Z,58.65
2019-04-04T12:19:00.962Z,58.96
2019-04-04T12:20:01.075Z,57.53
2019-04-04T12:21:00.941Z,58.78
2019-04-04T12:22:00.943Z,59.63
2019-04-04T12:23:00.932Z,60.55
2019-04-04T12:24:00.910Z,60.83
2019-04-04T12:25:00.942Z,60.31
2019-04-04T12:26:00.889Z,59.19
2019-04-04T12:27:00.925Z,59.70
2019-04-04T12:28:00.870Z,59.80
2019-04-04T12:29:00.918Z,60.72
2019-04-04T12:30:00.889Z,58.98
2019-04-04T12:31:00.839Z,57.84
2019-04-04T12:32:00.827Z,58.75
2019-04-04T12:33:00.817Z,58.17
2019-04-04T12:34:02.227Z,57.84
2019-04-04T12:35:00.818Z,58.04
2019-04-04T12:36:00.786Z,58.17
2019-04-04T12:37:00.766Z,59.37
2019-04-04T12:38:00.755Z,57.84
2019-04-04T12:39:00.750Z,58.04
2019-04-04T12:40:00.759Z,58.25
2019-04-04T12:41:00.743Z,57.63
2019-04-04T12:42:00.783Z,56.81
2019-04-04T12:43:00.718Z,57.81
2019-04-04T12:44:00.701Z,57.60
2019-04-04T12:45:00.700Z,59.55
2019-04-04T12:46:00.692Z,57.91
2019-04-04T12:47:00.670Z,57.60
2019-04-04T12:48:00.671Z,58.09
2019-04-04T12:49:00.639Z,57.75
2019-04-04T12:50:00.633Z,56.84
2019-04-04T12:51:00.619Z,55.58
2019-04-04T12:52:00.643Z,55.58